sensor_id;sensor_type;location;lat;lon;timestamp;pressure;altitude;pressure_sealevel;temperature;humidity
36254;BME280;22291;52.250;21.228;2023-04-30T03:13:22;100116.53;;;10.46;76.53
36254;BME280;22291;52.250;21.228;2023-04-30T03:15:57;100117.45;;;10.42;76.89
36254;BME280;22291;52.250;21.228;2023-04-30T03:18:28;100121.71;;;10.45;77.21
36254;BME280;22291;52.250;21.228;2023-04-30T03:20:54;100121.63;;;10.48;77.75
36254;BME280;22291;52.250;21.228;2023-04-30T03:23:20;100122.92;;;10.51;78.05
36254;BME280;22291;52.250;21.228;2023-04-30T03:25:49;100131.52;;;10.53;78.39
36254;BME280;22291;52.250;21.228;2023-04-30T03:28:16;100129.29;;;10.55;78.30
36254;BME280;22291;52.250;21.228;2023-04-30T03:30:42;100129.23;;;10.57;78.47
36254;BME280;22291;52.250;21.228;2023-04-30T03:33:08;100132.42;;;10.59;78.37
36254;BME280;22291;52.250;21.228;2023-04-30T03:35:34;100138.00;;;10.63;78.50
36254;BME280;22291;52.250;21.228;2023-04-30T03:38:05;100140.14;;;10.63;78.61
36254;BME280;22291;52.250;21.228;2023-04-30T03:40:31;100141.75;;;10.64;78.91
36254;BME280;22291;52.250;21.228;2023-04-30T03:43:00;100147.89;;;10.68;78.83
36254;BME280;22291;52.250;21.228;2023-04-30T03:45:26;100152.65;;;10.71;78.67
36254;BME280;22291;52.250;21.228;2023-04-30T03:47:53;100165.25;;;10.75;78.67
36254;BME280;22291;52.250;21.228;2023-04-30T03:50:19;100164.94;;;10.77;78.72
36254;BME280;22291;52.250;21.228;2023-04-30T03:52:45;100173.30;;;10.78;78.96
36254;BME280;22291;52.250;21.228;2023-04-30T03:55:11;100173.30;;;10.78;78.95
36254;BME280;22291;52.250;21.228;2023-04-30T03:57:39;100177.16;;;10.74;78.56
36254;BME280;22291;52.250;21.228;2023-04-30T04:00:12;100172.15;;;10.70;78.56
36254;BME280;22291;52.250;21.228;2023-04-30T04:02:40;100186.55;;;10.68;78.49
36254;BME280;22291;52.250;21.228;2023-04-30T04:05:11;100186.06;;;10.66;78.35
36254;BME280;22291;52.250;21.228;2023-04-30T04:07:37;100192.09;;;10.63;78.23
36254;BME280;22291;52.250;21.228;2023-04-30T04:10:06;100187.92;;;10.57;77.60
36254;BME280;22291;52.250;21.228;2023-04-30T04:12:33;100193.63;;;10.55;77.63
36254;BME280;22291;52.250;21.228;2023-04-30T04:15:00;100189.09;;;10.53;77.45
36254;BME280;22291;52.250;21.228;2023-04-30T04:17:28;100194.59;;;10.51;77.16
36254;BME280;22291;52.250;21.228;2023-04-30T04:19:55;100193.23;;;10.51;77.30
36254;BME280;22291;52.250;21.228;2023-04-30T04:22:23;100199.74;;;10.50;77.01
36254;BME280;22291;52.250;21.228;2023-04-30T04:24:49;100202.75;;;10.48;76.54
36254;BME280;22291;52.250;21.228;2023-04-30T04:27:17;100203.37;;;10.45;76.18
36254;BME280;22291;52.250;21.228;2023-04-30T04:29:45;100214.27;;;10.42;75.46
36254;BME280;22291;52.250;21.228;2023-04-30T04:32:14;100220.84;;;10.39;74.92
36254;BME280;22291;52.250;21.228;2023-04-30T04:34:42;100222.02;;;10.35;74.72
36254;BME280;22291;52.250;21.228;2023-04-30T20:04:04;100708.62;;;8.27;42.23
36254;BME280;22291;52.250;21.228;2023-04-30T20:06:31;100708.47;;;8.13;42.28
36254;BME280;22291;52.250;21.228;2023-04-30T20:08:58;100701.26;;;8.06;42.68
36254;BME280;22291;52.250;21.228;2023-04-30T20:11:26;100701.61;;;7.97;42.48
36254;BME280;22291;52.250;21.228;2023-04-30T20:13:53;100703.80;;;7.90;42.53
36254;BME280;22291;52.250;21.228;2023-04-30T20:16:21;100701.97;;;7.82;42.80
36254;BME280;22291;52.250;21.228;2023-04-30T20:18:47;100708.77;;;7.75;43.17
36254;BME280;22291;52.250;21.228;2023-04-30T20:21:14;100707.19;;;7.66;43.44
36254;BME280;22291;52.250;21.228;2023-04-30T20:23:41;100702.41;;;7.58;43.79
36254;BME280;22291;52.250;21.228;2023-04-30T20:26:08;100707.83;;;7.50;43.91
36254;BME280;22291;52.250;21.228;2023-04-30T20:28:36;100708.68;;;7.43;44.34
36254;BME280;22291;52.250;21.228;2023-04-30T20:31:03;100709.53;;;7.36;44.28
36254;BME280;22291;52.250;21.228;2023-04-30T20:33:31;100717.35;;;7.27;44.37
36254;BME280;22291;52.250;21.228;2023-04-30T20:35:58;100712.02;;;7.19;44.69
36254;BME280;22291;52.250;21.228;2023-04-30T20:38:25;100717.17;;;7.10;44.71
36254;BME280;22291;52.250;21.228;2023-04-30T20:40:51;100718.27;;;6.99;45.15
36254;BME280;22291;52.250;21.228;2023-04-30T20:43:19;100717.77;;;6.92;45.56
36254;BME280;22291;52.250;21.228;2023-04-30T20:45:47;100719.40;;;6.85;45.91
36254;BME280;22291;52.250;21.228;2023-04-30T20:48:13;100717.54;;;6.78;45.88
36254;BME280;22291;52.250;21.228;2023-04-30T20:50:42;100721.06;;;6.71;46.37
36254;BME280;22291;52.250;21.228;2023-04-30T20:53:08;100719.45;;;6.65;46.49
36254;BME280;22291;52.250;21.228;2023-04-30T20:55:36;100720.79;;;6.57;47.13
36254;BME280;22291;52.250;21.228;2023-04-30T20:58:03;100718.93;;;6.50;47.70
36254;BME280;22291;52.250;21.228;2023-04-30T21:00:29;100721.64;;;6.37;47.88
36254;BME280;22291;52.250;21.228;2023-04-30T21:02:56;100597.02;;;5.82;48.18
36254;BME280;22291;52.250;21.228;2023-04-30T21:05:23;100396.91;;;4.57;48.46
36254;BME280;22291;52.250;21.228;2023-04-30T22:02:13;100796.30;;;5.28;52.80
36254;BME280;22291;52.250;21.228;2023-04-30T22:04:43;100798.92;;;5.18;52.58
36254;BME280;22291;52.250;21.228;2023-04-30T22:07:10;100794.88;;;5.15;53.13
36254;BME280;22291;52.250;21.228;2023-04-30T22:09:36;100801.01;;;5.11;53.05
36254;BME280;22291;52.250;21.228;2023-04-30T22:12:03;100806.09;;;5.07;53.39
